Time;durP1;ratioP1;P1;durP2;ratioP2;P2;SDS_P1;SDS_P2;PMS_P1;PMS_P2;Temp;Humidity;BMP_temperature;BMP_pressure;BME280_temperature;BME280_humidity;BME280_pressure;Samples;Min_cycle;Max_cycle;Signal;HPM_P1;HPM_P2
2023/12/20 00:00:56;;;;;;;;;;;;;;;1.81;100.00;99457.78;5071780;28;19928;-76
2023/12/20 00:03:22;;;;;;;;;;;;;;;2.04;100.00;99436.88;5053954;28;19931;-75
2023/12/20 00:05:47;;;;;;;;;;;;;;;2.25;100.00;99435.97;5054317;28;20353;-75
2023/12/20 00:08:12;;;;;;;;;;;;;;;2.37;100.00;99443.44;5054034;28;19939;-76
2023/12/20 00:10:38;;;;;;;;;;;;;;;1.97;100.00;99467.81;5052843;28;19943;-75
2023/12/20 00:13:03;;;;;;;;;;;;;;;2.22;100.00;99451.84;5071522;28;19964;-76
2023/12/20 00:15:28;;;;;;;;;;;;;;;1.97;100.00;99474.47;5053694;28;20370;-75
2023/12/20 00:17:54;;;;;;;;;;;;;;;2.03;100.00;99464.44;5051683;28;19916;-75
2023/12/20 00:20:22;;;;;;;;;;;;;;;1.90;100.00;99473.69;5053819;28;19916;-75
2023/12/20 00:22:48;;;;;;;;;;;;;;;1.88;100.00;99484.53;5053853;28;19958;-75
2023/12/20 00:25:13;;;;;;;;;;;;;;;1.92;100.00;99477.00;5053617;28;19955;-76
2023/12/20 00:27:38;;;;;;;;;;;;;;;2.02;100.00;99470.31;5053590;28;19924;-76
2023/12/20 00:30:04;;;;;;;;;;;;;;;1.96;100.00;99477.84;5071146;28;19973;-78
2023/12/20 00:32:29;;;;;;;;;;;;;;;1.90;100.00;99478.69;5052459;28;20330;-74
2023/12/20 00:34:54;;;;;;;;;;;;;;;1.95;100.00;99461.97;5071479;28;19946;-75
2023/12/20 00:37:19;;;;;;;;;;;;;;;2.10;100.00;99436.03;5052458;28;19924;-76
2023/12/20 00:39:45;;;;;;;;;;;;;;;1.88;100.00;99429.41;5053613;28;19927;-79
2023/12/20 00:42:10;;;;;;;;;;;;;;;1.80;100.00;99403.53;5053402;28;19976;-76
2023/12/20 00:44:35;;;;;;;;;;;;;;;1.98;100.00;99360.91;5069505;28;19922;-77
2023/12/20 00:47:01;;;;;;;;;;;;;;;2.09;100.00;99336.59;5053195;28;20314;-76
2023/12/20 00:49:26;;;;;;;;;;;;;;;2.23;100.00;99309.81;5071066;28;19921;-82
2023/12/20 00:51:52;;;;;;;;;;;;;;;1.96;100.00;99303.25;5052717;28;19920;-78
2023/12/20 00:54:18;;;;;;;;;;;;;;;1.88;100.00;99304.97;5071833;28;19928;-77
2023/12/20 00:56:50;;;;;;;;;;;;;;;1.97;100.00;99286.53;5053297;28;19917;-77
2023/12/20 00:59:16;;;;;;;;;;;;;;;1.88;100.00;99277.41;5071072;28;19921;-78
2023/12/20 01:01:42;;;;;;;;;;;;;;;1.83;100.00;99268.25;5071096;28;19928;-78
2023/12/20 01:04:07;;;;;;;;;;;;;;;1.80;100.00;99265.75;5052747;28;19916;-76
2023/12/20 01:06:32;;;;;;;;;;;;;;;1.79;100.00;99264.91;5069817;28;19916;-77
2023/12/20 01:08:57;;;;;;;;;;;;;;;1.56;100.00;99272.53;5053236;28;19939;-77
2023/12/20 01:11:23;;;;;;;;;;;;;;;1.54;100.00;99266.72;5070824;28;19916;-77
2023/12/20 01:13:48;;;;;;;;;;;;;;;1.57;100.00;99264.19;5069975;28;20370;-76
2023/12/20 01:16:13;;;;;;;;;;;;;;;1.62;100.00;99270.00;5051328;28;19916;-78
2023/12/20 01:18:38;;;;;;;;;;;;;;;1.77;100.00;99252.41;5052739;28;19955;-76
2023/12/20 01:21:04;;;;;;;;;;;;;;;1.69;100.00;99254.13;5069939;28;19922;-76
2023/12/20 01:23:29;;;;;;;;;;;;;;;1.83;100.00;99253.19;5052104;28;20375;-75
2023/12/20 01:25:55;;;;;;;;;;;;;;;1.58;100.00;99270.03;5070081;28;20358;-75
2023/12/20 01:28:20;;;;;;;;;;;;;;;1.60;100.00;99266.69;5069470;28;19918;-76
2023/12/20 01:30:45;;;;;;;;;;;;;;;1.63;100.00;99263.31;5052390;28;19919;-76
2023/12/20 01:33:11;;;;;;;;;;;;;;;1.70;100.00;99258.28;5052712;28;19916;-76
2023/12/20 01:35:37;;;;;;;;;;;;;;;1.53;100.00;99272.53;5052464;28;19924;-75
2023/12/20 01:38:02;;;;;;;;;;;;;;;1.79;100.00;99254.91;5052329;28;19927;-75
2023/12/20 01:40:28;;;;;;;;;;;;;;;1.64;100.00;99183.16;5070175;28;19916;-77
2023/12/20 01:43:07;;;;;;;;;;;;;;;1.66;100.00;99273.34;5050860;28;20005;-74
2023/12/20 01:45:33;;;;;;;;;;;;;;;1.59;100.00;99276.69;5069580;28;19924;-74
2023/12/20 01:47:58;;;;;;;;;;;;;;;1.85;100.00;99244.00;5051808;28;19986;-79
2023/12/20 01:50:24;;;;;;;;;;;;;;;1.77;100.00;99232.38;5069509;28;19916;-73
2023/12/20 01:52:52;;;;;;;;;;;;;;;1.79;100.00;99229.84;5051678;28;19916;-75
2023/12/20 01:55:18;;;;;;;;;;;;;;;1.62;100.00;99221.59;5069383;28;19951;-77
2023/12/20 01:57:43;;;;;;;;;;;;;;;1.86;100.00;99191.41;5069164;28;19927;-74
2023/12/20 02:00:10;;;;;;;;;;;;;;;1.73;100.00;99170.63;5051882;28;19916;-75
2023/12/20 02:02:36;;;;;;;;;;;;;;;1.51;100.00;99159.03;5069599;28;19955;-78
2023/12/20 02:05:02;;;;;;;;;;;;;;;1.14;100.00;99151.72;5051968;28;20385;-76
2023/12/20 02:07:28;;;;;;;;;;;;;;;1.23;100.00;99091.63;5052121;28;19922;-74
2023/12/20 02:09:53;;;;;;;;;;;;;;;1.31;100.00;99049.84;5069588;28;19916;-79
2023/12/20 02:12:18;;;;;;;;;;;;;;;1.35;100.00;99012.28;5069448;28;19921;-75
2023/12/20 02:14:44;;;;;;;;;;;;;;;1.21;100.00;98974.00;5052262;28;19916;-75
2023/12/20 02:17:09;;;;;;;;;;;;;;;1.33;100.00;98926.34;5069772;28;19922;-75
2023/12/20 02:19:34;;;;;;;;;;;;;;;1.31;100.00;98880.50;5069032;28;19917;-78
2023/12/20 02:22:07;;;;;;;;;;;;;;;1.40;100.00;98829.53;5051343;28;19917;-79
2023/12/20 02:24:32;;;;;;;;;;;;;;;1.20;100.00;98804.72;5068668;28;20003;-73
2023/12/20 02:26:58;;;;;;;;;;;;;;;1.45;100.00;98723.50;5069879;28;20018;-75
2023/12/20 02:29:23;;;;;;;;;;;;;;;1.47;100.00;98674.25;5051630;28;19958;-75
2023/12/20 02:31:48;;;;;;;;;;;;;;;1.18;100.00;98647.94;5051135;28;20309;-75
2023/12/20 02:34:14;;;;;;;;;;;;;;;1.25;100.00;98571.97;5050697;28;19924;-75
2023/12/20 02:36:39;;;;;;;;;;;;;;;1.07;100.00;98530.47;5069260;28;19959;-75
2023/12/20 02:39:04;;;;;;;;;;;;;;;1.09;100.00;98471.25;5051451;28;19970;-76
2023/12/20 02:41:29;;;;;;;;;;;;;;;1.28;100.00;98397.56;5069307;28;19973;-75
2023/12/20 02:43:55;;;;;;;;;;;;;;;1.34;100.00;98354.09;5051318;28;20314;-76
2023/12/20 02:46:20;;;;;;;;;;;;;;;1.15;100.00;98348.56;5069299;28;20062;-76
2023/12/20 02:48:47;;;;;;;;;;;;;;;1.46;100.00;98289.63;5051079;28;19923;-76
2023/12/20 02:51:12;;;;;;;;;;;;;;;1.30;100.00;98303.28;5069503;28;19917;-75
2023/12/20 02:53:37;;;;;;;;;;;;;;;1.27;100.00;98295.81;5051418;28;19920;-77
2023/12/20 02:56:03;;;;;;;;;;;;;;;1.01;100.00;98319.66;5051178;28;19923;-77
2023/12/20 02:58:28;;;;;;;;;;;;;;;1.11;100.00;98284.44;5050966;28;19924;-76
2023/12/20 03:00:54;;;;;;;;;;;;;;;1.00;100.00;98266.31;5053553;28;19990;-77
2023/12/20 03:03:19;;;;;;;;;;;;;;;1.09;100.00;98225.31;5071687;28;20321;-76
2023/12/20 03:05:45;;;;;;;;;;;;;;;1.06;100.00;98192.84;5055273;28;19951;-76
2023/12/20 03:08:10;;;;;;;;;;;;;;;1.23;100.00;98154.13;5055531;28;19928;-76
2023/12/20 03:10:47;;;;;;;;;;;;;;;1.26;100.00;98145.75;5073517;28;19966;-77
2023/12/20 03:13:29;;;;;;;;;;;;;;;1.29;100.00;98131.47;5055639;28;19951;-74
2023/12/20 03:15:54;;;;;;;;;;;;;;;1.03;100.00;98151.19;5072728;28;20069;-76
2023/12/20 03:18:19;;;;;;;;;;;;;;;1.35;100.00;98113.00;5054988;28;20015;-77
2023/12/20 03:20:47;;;;;;;;;;;;;;;1.12;100.00;98137.69;5072559;28;19923;-78
2023/12/20 03:23:12;;;;;;;;;;;;;;;1.10;100.00;98132.72;5054906;28;20512;-75
2023/12/20 03:25:37;;;;;;;;;;;;;;;1.37;100.00;98108.78;5054075;28;20003;-76
2023/12/20 03:28:03;;;;;;;;;;;;;;;0.97;100.00;98165.53;5054847;28;19923;-76
2023/12/20 03:30:28;;;;;;;;;;;;;;;0.84;100.00;98178.25;5072320;28;19916;-75
2023/12/20 03:32:53;;;;;;;;;;;;;;;0.84;100.00;98172.41;5054836;28;20302;-76
2023/12/20 03:35:19;;;;;;;;;;;;;;;0.54;100.00;98210.44;5070688;28;19916;-75
2023/12/20 03:37:44;;;;;;;;;;;;;;;1.04;100.00;98145.34;5072307;28;20487;-77
2023/12/20 03:40:09;;;;;;;;;;;;;;;0.80;100.00;98181.66;5054181;28;19921;-77
2023/12/20 03:42:35;;;;;;;;;;;;;;;0.56;100.00;98214.56;5072383;28;19948;-79
2023/12/20 03:45:00;;;;;;;;;;;;;;;0.65;100.00;98203.59;5053466;28;19912;-76
2023/12/20 03:47:25;;;;;;;;;;;;;;;1.02;100.00;98171.25;5054478;28;19917;-75
2023/12/20 03:49:50;;;;;;;;;;;;;;;0.60;100.00;98217.84;5072241;28;21495;-75
2023/12/20 03:52:16;;;;;;;;;;;;;;;0.93;100.00;98188.94;5072218;28;19946;-76
2023/12/20 03:54:44;;;;;;;;;;;;;;;0.46;100.00;98247.22;5054656;28;19917;-74
2023/12/20 03:57:09;;;;;;;;;;;;;;;0.49;100.00;98253.03;5054210;28;19916;-75
2023/12/20 03:59:36;;;;;;;;;;;;;;;0.71;100.00;98221.00;5071367;28;19923;-77
2023/12/20 04:02:01;;;;;;;;;;;;;;;0.73;100.00;98224.28;5072372;28;19958;-75
2023/12/20 04:04:27;;;;;;;;;;;;;;;0.52;100.00;98254.63;5053757;28;19970;-76
2023/12/20 04:06:52;;;;;;;;;;;;;;;0.72;100.00;98240.13;5071810;28;20365;-74
2023/12/20 04:09:17;;;;;;;;;;;;;;;0.57;100.00;98266.22;5071932;28;19916;-74
2023/12/20 04:11:43;;;;;;;;;;;;;;;0.10;100.00;98308.53;5053162;28;19923;-74
2023/12/20 04:14:08;;;;;;;;;;;;;;;0.26;100.00;98289.22;5071412;28;19916;-75
2023/12/20 04:16:33;;;;;;;;;;;;;;;0.43;100.00;98265.63;5054257;28;20476;-76
2023/12/20 04:18:58;;;;;;;;;;;;;;;0.66;100.00;98260.22;5054130;28;19923;-77
2023/12/20 04:21:25;;;;;;;;;;;;;;;0.29;100.00;98296.63;5054160;28;19920;-75
2023/12/20 04:23:50;;;;;;;;;;;;;;;0.12;100.00;98303.56;5069643;28;19916;-75
2023/12/20 04:26:15;;;;;;;;;;;;;;;0.57;100.00;98256.22;5071846;28;19924;-76
2023/12/20 04:28:41;;;;;;;;;;;;;;;0.17;100.00;98286.81;5071722;28;19916;-77
2023/12/20 04:31:06;;;;;;;;;;;;;;;-0.11;100.00;98292.19;5053168;28;20290;-76
2023/12/20 04:33:31;;;;;;;;;;;;;;;-0.10;100.00;98253.91;5053766;28;20447;-75
2023/12/20 04:35:57;;;;;;;;;;;;;;;0.34;100.00;98215.78;5053568;28;19916;-77
2023/12/20 04:38:22;;;;;;;;;;;;;;;0.85;100.00;98234.88;5054062;28;19917;-79
2023/12/20 04:40:48;;;;;;;;;;;;;;;0.35;100.00;98319.03;5053333;28;19916;-77
2023/12/20 04:43:13;;;;;;;;;;;;;;;-0.05;100.00;98401.97;5053512;28;19944;-76
2023/12/20 04:45:38;;;;;;;;;;;;;;;0.37;100.00;98437.25;5070936;28;20406;-79
2023/12/20 04:48:04;;;;;;;;;;;;;;;0.15;100.00;98523.28;5053423;28;19916;-76
2023/12/20 04:50:29;;;;;;;;;;;;;;;0.32;100.00;98597.22;5052422;28;20302;-76
2023/12/20 04:52:54;;;;;;;;;;;;;;;0.21;100.00;98666.44;5053311;28;19912;-76
2023/12/20 04:55:26;;;;;;;;;;;;;;;0.34;100.00;98737.09;5071645;28;19993;-79
2023/12/20 04:57:51;;;;;;;;;;;;;;;0.43;100.00;98807.84;5050196;28;19924;-79
2023/12/20 05:00:16;;;;;;;;;;;;;;;0.54;100.00;98847.75;5051772;28;19923;-78
2023/12/20 05:02:42;;;;;;;;;;;;;;;0.39;100.00;98902.84;5068937;28;19916;-79
2023/12/20 05:05:07;;;;;;;;;;;;;;;0.57;100.00;98937.72;5068685;28;19920;-78
2023/12/20 05:07:33;;;;;;;;;;;;;;;0.53;100.00;98981.91;5050443;28;20287;-78
2023/12/20 05:09:58;;;;;;;;;;;;;;;0.21;100.00;99002.84;5050789;28;20370;-78
2023/12/20 05:12:23;;;;;;;;;;;;;;;0.63;100.00;99053.53;5051224;28;19931;-77
2023/12/20 05:14:49;;;;;;;;;;;;;;;0.33;100.00;99047.78;5050288;28;19916;-78
2023/12/20 05:17:14;;;;;;;;;;;;;;;0.19;100.00;99062.81;5068675;28;20381;-79
2023/12/20 05:19:39;;;;;;;;;;;;;;;0.61;100.00;99082.72;5051223;28;19920;-79
2023/12/20 05:22:04;;;;;;;;;;;;;;;0.09;100.00;99108.63;5051446;28;19924;-76
2023/12/20 05:24:30;;;;;;;;;;;;;;;0.36;100.00;99127.72;5050768;28;20420;-77
2023/12/20 05:26:55;;;;;;;;;;;;;;;0.41;100.00;99159.41;5050799;28;19916;-81
2023/12/20 05:29:20;;;;;;;;;;;;;;;0.43;100.00;99176.88;5050859;28;20382;-78
2023/12/20 05:31:45;;;;;;;;;;;;;;;0.83;100.00;99203.50;5050533;28;19920;-79
2023/12/20 05:34:11;;;;;;;;;;;;;;;0.72;100.00;99221.03;5049890;28;19924;-80
2023/12/20 05:36:36;;;;;;;;;;;;;;;0.62;100.00;99211.88;5067599;28;20437;-82
2023/12/20 05:39:03;;;;;;;;;;;;;;;0.29;100.00;99216.88;5050361;28;19923;-83
2023/12/20 05:41:28;;;;;;;;;;;;;;;0.39;100.00;99227.69;5050667;28;19920;-76
2023/12/20 05:43:54;;;;;;;;;;;;;;;0.59;100.00;99278.53;5068290;28;19923;-77
2023/12/20 05:46:19;;;;;;;;;;;;;;;0.42;100.00;99313.50;5051742;28;19920;-78
2023/12/20 05:48:44;;;;;;;;;;;;;;;1.36;100.00;99341.03;5051820;28;19923;-77
2023/12/20 05:51:13;;;;;;;;;;;;;;;0.94;100.00;99429.44;5069992;28;19917;-76
2023/12/20 05:53:38;;;;;;;;;;;;;;;0.85;100.00;99486.97;5049248;28;19939;-76
2023/12/20 05:56:04;;;;;;;;;;;;;;;0.57;100.00;99503.53;5051478;28;20027;-75
2023/12/20 05:58:29;;;;;;;;;;;;;;;0.63;100.00;99517.72;5068789;28;19923;-76
2023/12/20 06:00:54;;;;;;;;;;;;;;;0.57;100.00;99530.19;5070120;28;20394;-75
2023/12/20 06:03:20;;;;;;;;;;;;;;;0.49;100.00;99556.81;5052030;28;19912;-78
2023/12/20 06:05:45;;;;;;;;;;;;;;;0.54;100.00;99578.50;5051829;28;20830;-76
2023/12/20 06:08:10;;;;;;;;;;;;;;;0.83;100.00;99636.19;5068919;28;19912;-78
2023/12/20 06:10:35;;;;;;;;;;;;;;;0.74;100.00;99661.13;5052303;28;19917;-77
2023/12/20 06:13:01;;;;;;;;;;;;;;;0.32;100.00;99665.88;5070156;28;19939;-76
2023/12/20 06:15:26;;;;;;;;;;;;;;;0.26;100.00;99670.81;5070053;28;20386;-76
2023/12/20 06:17:51;;;;;;;;;;;;;;;0.57;100.00;99721.06;5051733;28;19946;-77
2023/12/20 06:20:22;;;;;;;;;;;;;;;0.46;100.00;99741.78;5051389;28;19923;-76
2023/12/20 06:22:47;;;;;;;;;;;;;;;0.45;100.00;99745.13;5069600;28;19978;-75
2023/12/20 06:25:12;;;;;;;;;;;;;;;0.52;100.00;99774.31;5070096;28;19917;-77
2023/12/20 06:27:38;;;;;;;;;;;;;;;0.35;100.00;99780.84;5069863;28;19916;-76
2023/12/20 06:30:03;;;;;;;;;;;;;;;0.61;100.00;99819.44;5068253;28;19916;-76
2023/12/20 06:32:29;;;;;;;;;;;;;;;0.66;100.00;99850.31;5051925;28;19920;-76
2023/12/20 06:34:54;;;;;;;;;;;;;;;0.73;100.00;99889.56;5069599;28;19923;-77
2023/12/20 06:37:19;;;;;;;;;;;;;;;0.66;100.00;99916.16;5055634;28;19916;-76
2023/12/20 06:39:45;;;;;;;;;;;;;;;0.59;100.00;99943.59;5055990;28;19923;-77
2023/12/20 06:42:10;;;;;;;;;;;;;;;1.05;100.00;100007.47;5055483;28;19916;-79
2023/12/20 06:44:36;;;;;;;;;;;;;;;0.66;100.00;99987.84;5072788;28;19939;-77
2023/12/20 06:47:02;;;;;;;;;;;;;;;0.73;100.00;99990.41;5055578;28;20386;-76
2023/12/20 06:49:27;;;;;;;;;;;;;;;0.65;100.00;99982.00;5056034;28;19924;-77
2023/12/20 06:51:53;;;;;;;;;;;;;;;0.94;100.00;100027.38;5073844;28;19991;-77
2023/12/20 06:54:18;;;;;;;;;;;;;;;1.00;100.00;100044.09;5072054;28;19916;-76
2023/12/20 06:56:43;;;;;;;;;;;;;;;1.05;100.00;100030.81;5056028;28;19956;-78
2023/12/20 06:59:08;;;;;;;;;;;;;;;0.94;100.00;100004.00;5055138;28;19958;-77
2023/12/20 07:01:34;;;;;;;;;;;;;;;0.71;100.00;99982.06;5072254;28;19916;-77
2023/12/20 07:03:59;;;;;;;;;;;;;;;1.26;100.00;100017.69;5055056;28;19990;-77
2023/12/20 07:06:25;;;;;;;;;;;;;;;1.04;100.00;99999.13;5054554;28;19916;-79
2023/12/20 07:08:52;;;;;;;;;;;;;;;1.10;100.00;99995.81;5073261;28;19921;-80
2023/12/20 07:11:17;;;;;;;;;;;;;;;1.25;100.00;99999.31;5055553;28;20033;-75
2023/12/20 07:13:42;;;;;;;;;;;;;;;1.12;100.00;99971.66;5072706;28;19939;-78
2023/12/20 07:16:07;;;;;;;;;;;;;;;0.99;100.00;99938.16;5072066;28;19986;-77
2023/12/20 07:18:33;;;;;;;;;;;;;;;0.52;100.00;99855.19;5054281;28;19917;-78
2023/12/20 07:20:58;;;;;;;;;;;;;;;0.44;100.00;99848.41;5073464;28;19948;-77
2023/12/20 07:23:23;;;;;;;;;;;;;;;0.96;100.00;99913.13;5054962;28;20389;-77
2023/12/20 07:25:49;;;;;;;;;;;;;;;1.39;100.00;99982.75;5053763;28;19924;-76
2023/12/20 07:28:25;;;;;;;;;;;;;;;1.45;100.00;99997.00;5054655;28;19912;-80
2023/12/20 07:30:50;;;;;;;;;;;;;;;1.22;100.00;99984.28;5054658;28;19965;-77
2023/12/20 07:33:16;;;;;;;;;;;;;;;1.19;100.00;99956.69;5054666;28;19912;-76
2023/12/20 07:35:41;;;;;;;;;;;;;;;1.52;100.00;99976.19;5053042;28;19916;-82
2023/12/20 07:38:06;;;;;;;;;;;;;;;1.51;100.00;99967.84;5072637;28;19923;-78
2023/12/20 07:40:32;;;;;;;;;;;;;;;1.19;100.00;99935.88;5072582;28;19916;-78
2023/12/20 07:42:58;;;;;;;;;;;;;;;1.16;100.00;99926.66;5054490;28;19916;-77
2023/12/20 07:45:23;;;;;;;;;;;;;;;1.62;100.00;99947.91;5052895;28;19913;-84
2023/12/20 07:47:49;;;;;;;;;;;;;;;1.42;100.00;99936.88;5071498;28;19922;-76
2023/12/20 07:50:15;;;;;;;;;;;;;;;1.80;100.00;99958.03;5053785;28;19924;-76
2023/12/20 07:52:40;;;;;;;;;;;;;;;1.54;100.00;99930.31;5053421;28;20341;-77
2023/12/20 07:55:06;;;;;;;;;;;;;;;1.39;100.00;99900.13;5053241;28;19921;-76
2023/12/20 07:57:31;;;;;;;;;;;;;;;1.45;100.00;99896.81;5069890;28;19920;-78
2023/12/20 07:59:57;;;;;;;;;;;;;;;1.20;100.00;99854.94;5053560;28;19947;-80
2023/12/20 08:02:22;;;;;;;;;;;;;;;1.37;100.00;99860.88;5070558;28;19916;-79
2023/12/20 08:04:48;;;;;;;;;;;;;;;1.40;100.00;99859.25;5071531;28;20282;-76
2023/12/20 08:07:13;;;;;;;;;;;;;;;1.27;100.00;99837.47;5070864;28;19916;-78
2023/12/20 08:09:38;;;;;;;;;;;;;;;1.50;100.00;99837.63;5052486;28;20274;-76
2023/12/20 08:12:04;;;;;;;;;;;;;;;1.79;100.00;99858.66;5070688;28;19928;-76
2023/12/20 08:14:29;;;;;;;;;;;;;;;1.66;100.00;99857.72;5070959;28;19916;-76
2023/12/20 08:16:54;;;;;;;;;;;;;;;1.72;100.00;99851.94;5053230;28;19916;-76
2023/12/20 08:19:19;;;;;;;;;;;;;;;2.11;100.00;99868.81;5052453;28;19952;-79
2023/12/20 08:21:45;;;;;;;;;;;;;;;2.01;100.00;99860.41;5071065;28;19916;-76
2023/12/20 08:24:10;;;;;;;;;;;;;;;2.18;100.00;99852.97;5053131;28;19924;-75
2023/12/20 08:26:35;;;;;;;;;;;;;;;2.33;100.00;99848.84;5070447;28;19939;-75
2023/12/20 08:29:00;;;;;;;;;;;;;;;2.18;100.00;99821.19;5070553;28;19912;-76
2023/12/20 08:31:26;;;;;;;;;;;;;;;2.38;100.00;99823.75;5052896;28;19916;-76
2023/12/20 08:33:53;;;;;;;;;;;;;;;2.23;100.00;99804.53;5069946;28;19984;-75
2023/12/20 08:36:19;;;;;;;;;;;;;;;2.25;100.00;99790.31;5052690;28;19912;-75
2023/12/20 08:38:44;;;;;;;;;;;;;;;2.48;100.00;99793.69;5051289;28;20356;-77
2023/12/20 08:41:10;;;;;;;;;;;;;;;1.84;100.00;99738.41;5070114;28;19916;-74
2023/12/20 08:43:35;;;;;;;;;;;;;;;1.68;100.00;99698.25;5052498;28;19916;-74
2023/12/20 08:46:01;;;;;;;;;;;;;;;2.03;100.00;99700.88;5052047;28;19932;-76
2023/12/20 08:48:26;;;;;;;;;;;;;;;1.70;100.00;99679.06;4995280;28;1572184;-76
2023/12/20 08:50:52;;;;;;;;;;;;;;;2.19;100.00;99684.16;5053208;28;19990;-76
2023/12/20 08:53:18;;;;;;;;;;;;;;;2.69;100.00;99722.63;5071126;28;19916;-76
2023/12/20 08:55:43;;;;;;;;;;;;;;;3.01;100.00;99745.19;5071491;28;19927;-76
2023/12/20 08:58:08;;;;;;;;;;;;;;;2.99;100.00;99752.69;5051858;28;20435;-77
2023/12/20 09:00:34;;;;;;;;;;;;;;;2.92;100.00;99730.97;5053158;28;20377;-78
2023/12/20 09:02:59;;;;;;;;;;;;;;;2.53;100.00;99693.38;5062095;28;19927;-76
2023/12/20 09:05:25;;;;;;;;;;;;;;;2.58;100.00;99671.59;5052720;28;20069;-76
2023/12/20 09:07:50;;;;;;;;;;;;;;;3.13;100.00;99694.94;5070418;28;19974;-75
2023/12/20 09:10:15;;;;;;;;;;;;;;;3.30;100.00;99728.38;5070707;28;19916;-78
2023/12/20 09:12:42;;;;;;;;;;;;;;;3.04;100.00;99697.47;5070627;28;20405;-75
2023/12/20 09:15:07;;;;;;;;;;;;;;;3.47;100.00;99704.84;5053002;28;19917;-76
2023/12/20 09:17:33;;;;;;;;;;;;;;;3.55;100.00;99702.31;5069698;28;19927;-77
2023/12/20 09:19:59;;;;;;;;;;;;;;;2.87;100.00;99654.00;5069995;28;19939;-75
2023/12/20 09:22:25;;;;;;;;;;;;;;;3.24;100.00;99651.38;5070431;28;19947;-76
2023/12/20 09:24:50;;;;;;;;;;;;;;;3.74;100.00;99698.88;5052769;28;20367;-78
2023/12/20 09:27:15;;;;;;;;;;;;;;;3.64;100.00;99694.75;5052381;28;20404;-77
2023/12/20 09:29:41;;;;;;;;;;;;;;;3.89;100.00;99698.78;5052450;28;19974;-77
2023/12/20 09:32:07;;;;;;;;;;;;;;;3.47;100.00;99669.69;5052625;28;19920;-77
2023/12/20 09:34:33;;;;;;;;;;;;;;;4.18;100.00;99691.88;5070247;28;19920;-76
2023/12/20 09:36:58;;;;;;;;;;;;;;;4.25;100.00;99687.66;5070018;28;20439;-78
2023/12/20 09:39:23;;;;;;;;;;;;;;;4.04;100.00;99658.44;5051999;28;19956;-77
2023/12/20 09:42:03;;;;;;;;;;;;;;;4.36;100.00;99663.22;5052681;28;19924;-77
2023/12/20 09:44:28;;;;;;;;;;;;;;;4.62;100.00;99678.94;5052524;28;19916;-77
2023/12/20 09:46:55;;;;;;;;;;;;;;;4.22;100.00;99642.38;5051106;28;20271;-77
2023/12/20 09:49:21;;;;;;;;;;;;;;;3.93;100.00;99597.34;5070378;28;19916;-77
2023/12/20 09:51:47;;;;;;;;;;;;;;;4.27;100.00;99607.97;5052688;28;19924;-76
2023/12/20 09:54:16;;;;;;;;;;;;;;;4.66;100.00;99625.22;5052204;28;19920;-75
2023/12/20 09:56:41;;;;;;;;;;;;;;;4.86;100.00;99637.59;5052044;28;19916;-75
2023/12/20 09:59:07;;;;;;;;;;;;;;;4.76;100.00;99593.22;5051734;28;19920;-75
2023/12/20 10:01:33;;;;;;;;;;;;;;;4.64;100.00;99583.28;5052618;28;20294;-75
2023/12/20 10:04:00;;;;;;;;;;;;;;;4.74;100.00;99598.28;5050795;28;19995;-77
2023/12/20 10:06:25;;;;;;;;;;;;;;;4.62;100.00;99584.97;5050487;28;19924;-81
2023/12/20 10:08:50;;;;;;;;;;;;;;;4.40;100.00;99560.03;5050784;28;19916;-76
2023/12/20 10:11:16;;;;;;;;;;;;;;;4.86;100.00;99562.91;5051767;28;19924;-76
2023/12/20 10:13:43;;;;;;;;;;;;;;;4.68;100.00;99542.97;5069427;28;19966;-78
2023/12/20 10:16:08;;;;;;;;;;;;;;;4.62;100.00;99527.09;5052120;28;19930;-76
2023/12/20 10:18:34;;;;;;;;;;;;;;;4.56;100.00;99517.09;5051053;28;19916;-77
2023/12/20 10:21:00;;;;;;;;;;;;;;;4.91;100.00;99525.88;5052112;28;20416;-76
2023/12/20 10:23:26;;;;;;;;;;;;;;;4.67;100.00;99512.78;5070159;28;19960;-78
2023/12/20 10:25:58;;;;;;;;;;;;;;;4.99;100.00;99516.56;5052083;28;19963;-82
2023/12/20 10:28:27;;;;;;;;;;;;;;;5.26;100.00;99533.84;5069250;28;19916;-85
2023/12/20 10:30:53;;;;;;;;;;;;;;;5.28;100.00;99528.75;4702026;28;10000054;-79
2023/12/20 10:33:25;;;;;;;;;;;;;;;4.93;100.00;99498.19;5052430;28;19916;-83
2023/12/20 10:35:51;;;;;;;;;;;;;;;5.31;100.00;99515.31;5066792;28;19924;-81
2023/12/20 10:38:17;;;;;;;;;;;;;;;5.39;100.00;99513.50;5067993;28;20011;-79
2023/12/20 10:40:42;;;;;;;;;;;;;;;5.32;100.00;99504.34;5048439;28;20696;-81
2023/12/20 10:43:09;;;;;;;;;;;;;;;5.44;100.00;99496.59;5049167;28;19924;-79
2023/12/20 10:45:34;;;;;;;;;;;;;;;5.64;100.00;99513.09;5067987;28;19916;-80
2023/12/20 10:48:01;;;;;;;;;;;;;;;5.64;100.00;99514.78;5067646;28;19965;-79
2023/12/20 10:50:28;;;;;;;;;;;;;;;5.68;100.00;99501.28;5050066;28;19916;-80
2023/12/20 10:52:55;;;;;;;;;;;;;;;5.73;100.00;99496.97;5052374;28;19924;-81
2023/12/20 10:55:22;;;;;;;;;;;;;;;5.54;100.00;99470.41;5050749;28;19923;-80
2023/12/20 10:57:50;;;;;;;;;;;;;;;5.75;100.00;99477.59;5052449;28;19920;-78
2023/12/20 11:00:17;;;;;;;;;;;;;;;5.87;100.00;99479.97;5069410;28;19916;-77
2023/12/20 11:02:43;;;;;;;;;;;;;;;6.25;100.00;99487.69;5051882;28;19916;-77
2023/12/20 11:05:27;;;;;;;;;;;;;;;5.82;100.00;99456.50;5070883;28;19924;-78
2023/12/20 11:07:57;;;;;;;;;;;;;;;5.96;100.00;99447.84;5051026;28;19920;-77
2023/12/20 11:10:23;;;;;;;;;;;;;;;6.06;100.00;99440.94;5069451;28;19925;-77
2023/12/20 11:13:00;;;;;;;;;;;;;;;6.47;100.00;99442.66;5069714;28;19919;-77
2023/12/20 11:15:27;;;;;;;;;;;;;;;6.47;100.00;99437.63;5069408;28;20420;-75
2023/12/20 11:17:56;;;;;;;;;;;;;;;6.83;100.00;99431.81;5068164;28;20034;-75
2023/12/20 11:20:23;;;;;;;;;;;;;;;6.69;100.00;99401.78;5069032;28;19973;-77
2023/12/20 11:22:52;;;;;;;;;;;;;;;6.39;100.00;99356.16;5055091;28;20007;-74
2023/12/20 11:25:18;;;;;;;;;;;;;;;6.62;100.00;99348.91;5072498;28;20622;-76
2023/12/20 11:27:43;;;;;;;;;;;;;;;6.79;100.00;99332.50;5055823;28;19920;-76
2023/12/20 11:30:09;;;;;;;;;;;;;;;7.09;100.00;99330.94;5053811;28;19924;-77
2023/12/20 11:32:35;;;;;;;;;;;;;;;7.09;100.00;99307.41;5072891;28;19974;-77
2023/12/20 11:35:16;;;;;;;;;;;;;;;7.07;100.00;99283.88;5072623;28;19925;-76
2023/12/20 11:37:42;;;;;;;;;;;;;;;7.08;100.00;99262.75;5071593;28;22150;-76
2023/12/20 11:40:11;;;;;;;;;;;;;;;7.38;100.00;99246.81;5053709;28;19916;-74
2023/12/20 11:42:40;;;;;;;;;;;;;;;7.25;100.00;99210.91;5054458;28;19920;-77
2023/12/20 11:45:09;;;;;;;;;;;;;;;7.33;100.00;99183.72;5055331;28;19962;-76
2023/12/20 11:47:34;;;;;;;;;;;;;;;7.31;100.00;99159.38;5054994;28;19923;-76
2023/12/20 11:50:03;;;;;;;;;;;;;;;7.44;100.00;99131.19;5072767;28;19917;-76
2023/12/20 11:52:28;;;;;;;;;;;;;;;7.65;100.00;99125.47;5055334;28;19924;-76
2023/12/20 11:54:54;;;;;;;;;;;;;;;7.57;100.00;99096.22;5054556;28;20020;-76
2023/12/20 11:57:19;;;;;;;;;;;;;;;7.74;100.00;99087.25;5055106;28;19925;-76
2023/12/20 11:59:44;;;;;;;;;;;;;;;7.72;100.00;99060.38;5052511;28;20309;-78
2023/12/20 12:02:11;;;;;;;;;;;;;;;7.97;100.00;99046.03;5072519;28;20007;-77
2023/12/20 12:04:36;;;;;;;;;;;;;;;7.93;100.00;99029.31;5068819;28;19970;-76
2023/12/20 12:07:03;;;;;;;;;;;;;;;8.11;100.00;99015.22;5072091;28;20409;-76
2023/12/20 12:09:28;;;;;;;;;;;;;;;7.98;100.00;98993.75;5072200;28;19969;-76
2023/12/20 12:11:53;;;;;;;;;;;;;;;8.04;100.00;98974.13;5054288;28;20007;-77
2023/12/20 12:14:20;;;;;;;;;;;;;;;8.10;100.00;98966.28;5071418;28;19923;-77
2023/12/20 12:16:45;;;;;;;;;;;;;;;8.58;100.00;98976.44;5054293;28;20003;-76
2023/12/20 12:19:23;;;;;;;;;;;;;;;8.42;100.00;98957.59;5053846;28;20480;-74
2023/12/20 12:21:51;;;;;;;;;;;;;;;8.67;100.00;98961.75;5054122;28;20020;-79
2023/12/20 12:24:20;;;;;;;;;;;;;;;8.80;100.00;98933.41;5054170;28;19939;-74
2023/12/20 12:26:49;;;;;;;;;;;;;;;8.94;100.00;98926.09;5052755;28;19917;-75
2023/12/20 12:29:14;;;;;;;;;;;;;;;8.89;100.00;98895.06;5053366;28;19922;-75
2023/12/20 12:31:40;;;;;;;;;;;;;;;9.16;100.00;98883.81;5070866;28;19924;-75
2023/12/20 12:34:05;;;;;;;;;;;;;;;9.27;100.00;98861.41;5069819;28;19927;-75
2023/12/20 12:36:31;;;;;;;;;;;;;;;9.05;100.00;98841.16;5051495;28;19916;-75
2023/12/20 12:39:03;;;;;;;;;;;;;;;9.35;100.00;98832.31;5070530;28;19974;-81